MSC Barbara — HODU — position and weather

sailwx.info

Track history (hours):
 
Tides and Currents Weather Stations Pressure Air Temp Water Temp Dewpoint Dewpoint Depression Visibility Wind Speed Wind Dir Waves Ship Positions

MSC Barbara

Last reported at 2014-Nov-28 17:32 UTC. Time now 2014-Nov-28 18:14 UTC.
Position N 51°57' E 002°38'.

; draft 10.2 m.

Type: Ship (hazmat cat D). MMSI: 353775000.

Date/timePositionNaut miles runAvg speedWind from/ knotsBaromVisibWave heightAir tempDewpointWater temp
2014-Nov-28 17:32N 51°57' E 002°38'2019.8
2014-Nov-28 16:32N 51°52' E 002°07'1717.6
2014-Nov-28 15:33N 51°50' E 001°39'9 9.0
2014-Nov-28 14:33N 51°56' E 001°28'7 6.3
2014-Nov-28 13:31N 51°58' E 001°17'0 0.0
2014-Nov-28 12:34N 51°58' E 001°17'0 0.0
2014-Nov-28 11:33N 51°58' E 001°17'0 0.0
2014-Nov-28 10:33N 51°58' E 001°17'0 0.0
2014-Nov-28 09:32N 51°58' E 001°17'0 0.0
2014-Nov-28 08:32N 51°58' E 001°17'0 0.0
2014-Nov-28 07:31N 51°58' E 001°17'0 0.0
2014-Nov-28 06:31N 51°58' E 001°17'0 0.0
2014-Nov-28 05:33N 51°58' E 001°17'0 0.0
2014-Nov-28 04:33N 51°58' E 001°17'0 0.0
2014-Nov-28 03:33N 51°58' E 001°17'0 0.0
2014-Nov-28 02:32N 51°58' E 001°17'0 0.0
2014-Nov-28 01:32N 51°58' E 001°17'0 0.0
2014-Nov-28 00:31N 51°58' E 001°17'0 0.0
2014-Nov-27 23:31N 51°58' E 001°17'0 0.0
2014-Nov-27 22:33N 51°58' E 001°17'0 0.0
2014-Nov-27 21:33N 51°58' E 001°17'4 4.2
2014-Nov-27 20:33N 51°56' E 001°24'1111.2
2014-Nov-27 19:34N 51°51' E 001°40'4 4.4
2014-Nov-27 18:34N 51°52' E 001°47'4 4.3
2014-Nov-27 17:33N 51°50' E 001°54'6 5.8
2014-Nov-27 16:33N 51°52' E 002°02'6 5.5
2014-Nov-27 15:23N 51°55' E 002°12'5 6.4
2014-Nov-27 14:33N 51°56' E 002°20'24 7.4
2014-Nov-27 11:17N 52°02' E 002°59'6 7.9
2014-Nov-27 10:30N 52°03' E 003°08'2111.0
2014-Nov-27 08:34N 52°04' E 003°43'9 9.0
2014-Nov-27 07:33N 52°02' E 003°57'6 5.5
2014-Nov-27 06:31N 51°58' E 004°04'0 0.0
2014-Nov-27 05:28N 51°58' E 004°04'0 0.0
2014-Nov-27 04:27N 51°58' E 004°04'0 0.0
2014-Nov-27 03:33N 51°58' E 004°04'0 0.0
2014-Nov-27 02:32N 51°58' E 004°04'0 0.0
2014-Nov-27 01:32N 51°58' E 004°04'0 0.0
2014-Nov-27 00:31N 51°58' E 004°04'0 0.0
2014-Nov-26 23:31N 51°58' E 004°04'0 0.0
2014-Nov-26 22:31N 51°58' E 004°04'0 0.0
2014-Nov-26 21:33N 51°58' E 004°04'0 0.0
2014-Nov-26 20:33N 51°58' E 004°04'0 0.0
2014-Nov-26 19:32N 51°58' E 004°04'1 1.5
2014-Nov-26 18:33N 51°59' E 004°04'1110.8
2014-Nov-26 17:33N 51°60' E 003°46'5312.3
2014-Nov-26 13:12N 51°39' E 002°26'1015.3
2014-Nov-26 12:32N 51°32' E 002°15'1313.6
2014-Nov-26 11:33N 51°19' E 002°08'1312.7
2014-Nov-26 10:33N 51°10' E 001°54'1312.8
2014-Nov-26 09:33N 51°01' E 001°39'1212.3
2014-Nov-26 08:33N 50°52' E 001°26'  
Track history (hours):
 
Tides and Currents Weather Stations Pressure Air Temp Water Temp Dewpoint Dewpoint Depression Visibility Wind Speed Wind Dir Waves Ship Positions

MSC Barbara

Last reported at 2014-Nov-28 17:32 UTC. Time now 2014-Nov-28 18:14 UTC.
Position N 51°57' E 002°38'.

; draft 10.2 m.

Type: Ship (hazmat cat D). MMSI: 353775000.

Date/timePositionNaut miles runAvg speedWind from/ knotsBaromVisibWave heightAir tempDewpointWater temp
2014-Nov-28 17:32N 51°57' E 002°38'2019.8
2014-Nov-28 16:32N 51°52' E 002°07'1717.6
2014-Nov-28 15:33N 51°50' E 001°39'9 9.0
2014-Nov-28 14:33N 51°56' E 001°28'7 6.3
2014-Nov-28 13:31N 51°58' E 001°17'0 0.0
2014-Nov-28 12:34N 51°58' E 001°17'0 0.0
2014-Nov-28 11:33N 51°58' E 001°17'0 0.0
2014-Nov-28 10:33N 51°58' E 001°17'0 0.0
2014-Nov-28 09:32N 51°58' E 001°17'0 0.0
2014-Nov-28 08:32N 51°58' E 001°17'0 0.0
2014-Nov-28 07:31N 51°58' E 001°17'0 0.0
2014-Nov-28 06:31N 51°58' E 001°17'0 0.0
2014-Nov-28 05:33N 51°58' E 001°17'0 0.0
2014-Nov-28 04:33N 51°58' E 001°17'0 0.0
2014-Nov-28 03:33N 51°58' E 001°17'0 0.0
2014-Nov-28 02:32N 51°58' E 001°17'0 0.0
2014-Nov-28 01:32N 51°58' E 001°17'0 0.0
2014-Nov-28 00:31N 51°58' E 001°17'0 0.0
2014-Nov-27 23:31N 51°58' E 001°17'0 0.0
2014-Nov-27 22:33N 51°58' E 001°17'0 0.0
2014-Nov-27 21:33N 51°58' E 001°17'4 4.2
2014-Nov-27 20:33N 51°56' E 001°24'1111.2
2014-Nov-27 19:34N 51°51' E 001°40'4 4.4
2014-Nov-27 18:34N 51°52' E 001°47'4 4.3
2014-Nov-27 17:33N 51°50' E 001°54'6 5.8
2014-Nov-27 16:33N 51°52' E 002°02'6 5.5
2014-Nov-27 15:23N 51°55' E 002°12'5 6.4
2014-Nov-27 14:33N 51°56' E 002°20'24 7.4
2014-Nov-27 11:17N 52°02' E 002°59'6 7.9
2014-Nov-27 10:30N 52°03' E 003°08'2111.0
2014-Nov-27 08:34N 52°04' E 003°43'9 9.0
2014-Nov-27 07:33N 52°02' E 003°57'6 5.5
2014-Nov-27 06:31N 51°58' E 004°04'0 0.0
2014-Nov-27 05:28N 51°58' E 004°04'0 0.0
2014-Nov-27 04:27N 51°58' E 004°04'0 0.0
2014-Nov-27 03:33N 51°58' E 004°04'0 0.0
2014-Nov-27 02:32N 51°58' E 004°04'0 0.0
2014-Nov-27 01:32N 51°58' E 004°04'0 0.0
2014-Nov-27 00:31N 51°58' E 004°04'0 0.0
2014-Nov-26 23:31N 51°58' E 004°04'0 0.0
2014-Nov-26 22:31N 51°58' E 004°04'0 0.0
2014-Nov-26 21:33N 51°58' E 004°04'0 0.0
2014-Nov-26 20:33N 51°58' E 004°04'0 0.0
2014-Nov-26 19:32N 51°58' E 004°04'1 1.5
2014-Nov-26 18:33N 51°59' E 004°04'1110.8
2014-Nov-26 17:33N 51°60' E 003°46'5312.3
2014-Nov-26 13:12N 51°39' E 002°26'1015.3
2014-Nov-26 12:32N 51°32' E 002°15'1313.6
2014-Nov-26 11:33N 51°19' E 002°08'1312.7
2014-Nov-26 10:33N 51°10' E 001°54'1312.8
2014-Nov-26 09:33N 51°01' E 001°39'1212.3
2014-Nov-26 08:33N 50°52' E 001°26'  

Dump ship's entire track history